Time;durP1;ratioP1;P1;durP2;ratioP2;P2;SDS_P1;SDS_P2;PMS_P1;PMS_P2;Temp;Humidity;BMP_temperature;BMP_pressure;BME280_temperature;BME280_humidity;BME280_pressure;Samples;Min_cycle;Max_cycle;Signal;HPM_P1;HPM_P2
2022/12/07 00:00:12;;;;;;;;;;;11.20;63.30;;;;;;4989434;28;19921;-87
2022/12/07 00:02:38;;;;;;;;;;;11.30;63.30;;;;;;4987599;28;20249;-86
2022/12/07 00:05:03;;;;;;;;;;;11.30;63.30;;;;;;5000504;28;19918;-88
2022/12/07 00:07:29;;;;;;;;;;;11.30;63.20;;;;;;5004406;28;20012;-90
2022/12/07 00:09:54;;;;;;;;;;;11.40;63.20;;;;;;5005985;28;20305;-89
2022/12/07 00:12:20;;;;;;;;;;;11.40;63.20;;;;;;4987181;28;19921;-86
2022/12/07 00:14:46;;;;;;;;;;;11.40;63.00;;;;;;4985325;28;19923;-88
2022/12/07 00:17:12;;;;;;;;;;;11.40;63.10;;;;;;4985116;28;19921;-89
2022/12/07 00:19:37;;;;;;;;;;;11.40;63.20;;;;;;4996742;28;19928;-88
2022/12/07 00:22:02;;;;;;;;;;;11.50;62.90;;;;;;5013647;28;19916;-87
2022/12/07 00:24:28;;;;;;;;;;;11.50;63.00;;;;;;4997073;28;20341;-88
2022/12/07 00:26:53;;;;;;;;;;;11.50;62.90;;;;;;5013390;28;19914;-90
2022/12/07 00:29:20;;;;;;;;;;;11.50;62.80;;;;;;5013821;28;19963;-87
2022/12/07 00:31:46;;;;;;;;;;;11.50;63.00;;;;;;4995987;28;19918;-89
2022/12/07 00:34:13;;;;;;;;;;;11.50;62.90;;;;;;5025175;28;19948;-88
2022/12/07 00:36:38;;;;;;;;;;;11.50;62.90;;;;;;5034009;28;19949;-88
2022/12/07 00:39:04;;;;;;;;;;;11.50;62.90;;;;;;5033875;28;19956;-88
2022/12/07 00:41:30;;;;;;;;;;;11.50;63.00;;;;;;5004481;28;20387;-89
2022/12/07 00:43:55;;;;;;;;;;;11.60;62.90;;;;;;4985527;28;20343;-88
2022/12/07 00:46:21;;;;;;;;;;;11.50;62.90;;;;;;4995746;28;20373;-88
2022/12/07 00:48:47;;;;;;;;;;;11.60;63.00;;;;;;4997383;28;20368;-87
2022/12/07 00:51:13;;;;;;;;;;;11.60;62.90;;;;;;5013515;28;19924;-90
2022/12/07 00:53:39;;;;;;;;;;;11.60;63.00;;;;;;4998582;28;19914;-88
2022/12/07 00:56:06;;;;;;;;;;;11.60;62.90;;;;;;5013180;28;19921;-87
2022/12/07 00:58:31;;;;;;;;;;;11.60;62.90;;;;;;4989463;28;19947;-88
2022/12/07 01:00:59;;;;;;;;;;;11.60;63.00;;;;;;4995638;28;19918;-90
2022/12/07 01:03:24;;;;;;;;;;;11.60;62.90;;;;;;4978616;28;19941;-87
2022/12/07 01:05:51;;;;;;;;;;;11.60;62.90;;;;;;4977028;28;19914;-90
2022/12/07 01:08:16;;;;;;;;;;;11.60;62.70;;;;;;4979154;28;20336;-87
2022/12/07 01:10:42;;;;;;;;;;;11.60;62.70;;;;;;4993866;28;19964;-87
2022/12/07 01:13:08;;;;;;;;;;;11.50;62.70;;;;;;4993829;28;19922;-89
2022/12/07 01:15:33;;;;;;;;;;;11.50;62.70;;;;;;4994457;28;19960;-88
2022/12/07 01:17:59;;;;;;;;;;;11.50;62.80;;;;;;4977046;28;19950;-89
2022/12/07 01:20:24;;;;;;;;;;;11.50;62.80;;;;;;4978047;28;19925;-87
2022/12/07 01:22:50;;;;;;;;;;;11.50;62.70;;;;;;4977209;28;19920;-88
2022/12/07 01:25:16;;;;;;;;;;;11.40;62.70;;;;;;4994275;28;19918;-88
2022/12/07 01:27:41;;;;;;;;;;;11.30;62.50;;;;;;4975853;28;19914;-90
2022/12/07 01:30:07;;;;;;;;;;;11.20;62.30;;;;;;4976020;28;20452;-89
2022/12/07 01:32:33;;;;;;;;;;;11.20;62.40;;;;;;4985716;28;19945;-88
2022/12/07 01:34:59;;;;;;;;;;;11.10;62.40;;;;;;5012640;28;20018;-88
2022/12/07 01:37:24;;;;;;;;;;;11.10;62.30;;;;;;5013839;28;19928;-89
2022/12/07 01:39:50;;;;;;;;;;;11.00;62.30;;;;;;5015805;28;19917;-89
2022/12/07 01:42:16;;;;;;;;;;;10.90;62.30;;;;;;5018048;28;20007;-87
2022/12/07 01:45:01;;;;;;;;;;;10.80;62.10;;;;;;4999249;28;19973;-90
2022/12/07 01:47:27;;;;;;;;;;;10.70;61.90;;;;;;4994889;28;19913;-88
2022/12/07 01:49:52;;;;;;;;;;;10.60;62.00;;;;;;4986282;28;19921;-87
2022/12/07 01:52:24;;;;;;;;;;;10.60;62.00;;;;;;4975869;28;19922;-89
2022/12/07 01:54:51;;;;;;;;;;;10.50;62.20;;;;;;4992329;28;20007;-87
2022/12/07 01:57:16;;;;;;;;;;;10.50;62.30;;;;;;4980213;28;19965;-87
2022/12/07 01:59:47;;;;;;;;;;;10.50;62.30;;;;;;4975964;28;19914;-88
2022/12/07 02:02:41;;;;;;;;;;;10.40;62.30;;;;;;4976036;28;19914;-87
2022/12/07 02:05:07;;;;;;;;;;;10.40;62.00;;;;;;4990219;28;19916;-89
2022/12/07 02:07:34;;;;;;;;;;;10.30;61.80;;;;;;4990921;28;19914;-87
2022/12/07 02:10:32;;;;;;;;;;;10.20;61.40;;;;;;4994762;28;19914;-87
2022/12/07 02:13:01;;;;;;;;;;;10.10;61.20;;;;;;4984406;28;19913;-89
2022/12/07 02:15:32;;;;;;;;;;;10.00;61.00;;;;;;4995444;28;19913;-89
2022/12/07 02:18:05;;;;;;;;;;;9.80;60.90;;;;;;4996714;28;19922;-88
2022/12/07 02:20:42;;;;;;;;;;;9.70;60.70;;;;;;4995392;28;19913;-89
2022/12/07 02:23:20;;;;;;;;;;;9.60;60.50;;;;;;4994332;28;19936;-87
2022/12/07 02:25:54;;;;;;;;;;;9.50;60.30;;;;;;4998361;28;20289;-87
2022/12/07 02:28:33;;;;;;;;;;;9.40;60.20;;;;;;4994828;28;20287;-88
2022/12/07 02:31:00;;;;;;;;;;;9.20;59.90;;;;;;4996089;28;20388;-90
2022/12/07 02:33:31;;;;;;;;;;;9.10;59.90;;;;;;5016466;28;19924;-89
2022/12/07 02:36:00;;;;;;;;;;;9.00;59.90;;;;;;5015416;28;19917;-87
2022/12/07 02:38:28;;;;;;;;;;;8.90;60.10;;;;;;5013813;28;20167;-89
2022/12/07 02:40:57;;;;;;;;;;;8.80;60.30;;;;;;5023089;28;19921;-88
2022/12/07 02:43:25;;;;;;;;;;;8.80;60.30;;;;;;4990028;28;20000;-89
2022/12/07 02:45:51;;;;;;;;;;;8.70;60.70;;;;;;4995020;28;20419;-89
2022/12/07 02:48:18;;;;;;;;;;;8.70;61.00;;;;;;4996875;28;19909;-87
2022/12/07 02:50:44;;;;;;;;;;;8.70;61.20;;;;;;4998679;28;19918;-90
2022/12/07 02:53:28;;;;;;;;;;;8.60;61.30;;;;;;5019902;28;19910;-88
2022/12/07 02:55:54;;;;;;;;;;;8.60;61.30;;;;;;5016067;28;19918;-88
2022/12/07 02:58:29;;;;;;;;;;;8.50;61.30;;;;;;4999808;28;19933;-87
2022/12/07 03:01:03;;;;;;;;;;;8.50;61.40;;;;;;4998241;28;20156;-87
2022/12/07 03:03:29;;;;;;;;;;;8.50;61.40;;;;;;5000633;28;19909;-90
2022/12/07 03:05:54;;;;;;;;;;;8.50;61.30;;;;;;5017547;28;20291;-87
2022/12/07 03:08:38;;;;;;;;;;;8.40;61.20;;;;;;4998354;28;20014;-90
2022/12/07 03:11:18;;;;;;;;;;;8.40;61.00;;;;;;4997880;28;20008;-88
2022/12/07 03:13:44;;;;;;;;;;;8.30;60.80;;;;;;5016347;28;19937;-88
2022/12/07 03:16:15;;;;;;;;;;;8.30;60.70;;;;;;4997167;28;20301;-87
2022/12/07 03:18:49;;;;;;;;;;;8.20;60.70;;;;;;4997942;28;20254;-88
2022/12/07 03:21:16;;;;;;;;;;;8.20;60.70;;;;;;5015311;28;19924;-88
2022/12/07 03:23:43;;;;;;;;;;;8.10;60.50;;;;;;4998216;28;19914;-88
2022/12/07 03:26:11;;;;;;;;;;;8.10;60.50;;;;;;4999008;28;20020;-87
2022/12/07 03:28:42;;;;;;;;;;;8.00;60.60;;;;;;5015089;28;19910;-89
2022/12/07 03:31:11;;;;;;;;;;;8.00;60.80;;;;;;4995676;28;19972;-89
2022/12/07 03:33:41;;;;;;;;;;;8.00;61.10;;;;;;4991748;28;19913;-87
2022/12/07 03:36:20;;;;;;;;;;;8.00;61.40;;;;;;5017099;28;19988;-88
2022/12/07 03:38:49;;;;;;;;;;;8.00;61.40;;;;;;5034873;28;19917;-85
2022/12/07 03:41:18;;;;;;;;;;;8.00;61.40;;;;;;5019117;28;20333;-88
2022/12/07 03:43:44;;;;;;;;;;;8.00;61.60;;;;;;5010431;28;19926;-88
2022/12/07 03:46:23;;;;;;;;;;;7.90;61.50;;;;;;4999963;28;20285;-87
2022/12/07 03:49:11;;;;;;;;;;;8.00;61.50;;;;;;4990849;28;19914;-86
2022/12/07 03:51:40;;;;;;;;;;;7.90;61.50;;;;;;4977861;28;19961;-86
2022/12/07 03:54:08;;;;;;;;;;;7.90;61.60;;;;;;4979664;28;19928;-88
2022/12/07 03:56:34;;;;;;;;;;;7.90;61.40;;;;;;4995339;28;19922;-87
2022/12/07 03:59:00;;;;;;;;;;;7.90;61.30;;;;;;4977299;28;19922;-89
2022/12/07 04:01:25;;;;;;;;;;;7.90;61.50;;;;;;4977674;28;19920;-88
2022/12/07 04:03:51;;;;;;;;;;;7.90;61.40;;;;;;4996184;28;19976;-89
2022/12/07 04:06:17;;;;;;;;;;;7.90;61.50;;;;;;4995791;28;19914;-89
2022/12/07 04:08:42;;;;;;;;;;;7.90;61.60;;;;;;4977361;28;20262;-89
2022/12/07 04:11:08;;;;;;;;;;;8.00;61.80;;;;;;4977605;28;19920;-88
2022/12/07 04:14:18;;;;;;;;;;;8.00;61.90;;;;;;4977325;28;19981;-88
2022/12/07 04:16:19;;;;;;;;;;;8.00;61.90;;;;;;4994919;28;20161;-89
2022/12/07 04:18:44;;;;;;;;;;;8.00;61.60;;;;;;4994162;28;19969;-87
2022/12/07 04:21:10;;;;;;;;;;;8.00;61.60;;;;;;4994055;28;19918;-87
2022/12/07 04:23:36;;;;;;;;;;;8.00;61.80;;;;;;4994811;28;20265;-89
2022/12/07 04:26:01;;;;;;;;;;;8.10;62.20;;;;;;4977817;28;19922;-88
2022/12/07 04:28:27;;;;;;;;;;;8.20;62.30;;;;;;4977101;28;19957;-87
2022/12/07 04:30:52;;;;;;;;;;;8.20;62.50;;;;;;4977349;28;19918;-87
2022/12/07 04:33:18;;;;;;;;;;;8.30;62.60;;;;;;4980927;28;19921;-86
2022/12/07 04:35:44;;;;;;;;;;;8.30;62.70;;;;;;5015682;28;20319;-88
2022/12/07 04:38:09;;;;;;;;;;;8.40;62.80;;;;;;5014884;28;20433;-87
2022/12/07 04:40:35;;;;;;;;;;;8.50;63.00;;;;;;5003335;28;20381;-87
2022/12/07 04:43:00;;;;;;;;;;;8.60;63.00;;;;;;4976217;28;19913;-87
2022/12/07 04:45:26;;;;;;;;;;;8.60;63.00;;;;;;4986648;28;19977;-89
2022/12/07 04:47:51;;;;;;;;;;;8.70;62.80;;;;;;4995386;28;19927;-88
2022/12/07 04:50:17;;;;;;;;;;;8.60;62.60;;;;;;4995487;28;19913;-87
2022/12/07 04:52:42;;;;;;;;;;;8.60;62.70;;;;;;5013378;28;20357;-89
2022/12/07 04:55:08;;;;;;;;;;;8.70;62.60;;;;;;5013430;28;19913;-88
2022/12/07 04:57:34;;;;;;;;;;;8.70;62.70;;;;;;4995895;28;20337;-86
2022/12/07 05:00:01;;;;;;;;;;;8.70;62.70;;;;;;4994916;28;19914;-86
2022/12/07 05:02:26;;;;;;;;;;;8.70;62.70;;;;;;4995028;28;19920;-87
2022/12/07 05:04:52;;;;;;;;;;;8.70;62.90;;;;;;5012546;28;19917;-86
2022/12/07 05:07:18;;;;;;;;;;;8.80;62.90;;;;;;4995089;28;19910;-89
2022/12/07 05:09:43;;;;;;;;;;;8.90;62.90;;;;;;4995053;28;20351;-88
2022/12/07 05:12:09;;;;;;;;;;;9.00;63.00;;;;;;4994981;28;19916;-87
2022/12/07 05:14:34;;;;;;;;;;;9.00;63.00;;;;;;4994581;28;20435;-89
2022/12/07 05:17:00;;;;;;;;;;;9.10;63.00;;;;;;4995079;28;19916;-87
2022/12/07 05:19:26;;;;;;;;;;;9.20;63.00;;;;;;5012206;28;19985;-86
2022/12/07 05:21:51;;;;;;;;;;;9.20;62.90;;;;;;4994852;28;19980;-88
2022/12/07 05:24:17;;;;;;;;;;;9.30;62.80;;;;;;4995251;28;19914;-88
2022/12/07 05:26:43;;;;;;;;;;;9.30;62.80;;;;;;4994745;28;19989;-90
2022/12/07 05:29:13;;;;;;;;;;;9.40;62.90;;;;;;4994800;28;19913;-88
2022/12/07 05:31:39;;;;;;;;;;;9.40;63.00;;;;;;5011489;28;19914;-90
2022/12/07 05:34:12;;;;;;;;;;;9.50;63.00;;;;;;5084309;28;19913;-88
2022/12/07 05:36:37;;;;;;;;;;;9.50;62.90;;;;;;5067232;28;19912;-87
2022/12/07 05:39:03;;;;;;;;;;;9.50;62.90;;;;;;5069031;28;19928;-89
2022/12/07 05:44:13;;;;;;;;;;;9.50;62.70;;;;;;5067454;28;19982;-88
2022/12/07 05:46:38;;;;;;;;;;;9.60;62.80;;;;;;5048351;28;20356;-89
2022/12/07 05:49:04;;;;;;;;;;;9.60;62.70;;;;;;5047796;28;19944;-90
2022/12/07 05:51:29;;;;;;;;;;;9.60;62.60;;;;;;5046825;28;19913;-89
2022/12/07 05:53:55;;;;;;;;;;;9.60;62.60;;;;;;5048166;28;19971;-87
2022/12/07 05:56:21;;;;;;;;;;;9.60;62.50;;;;;;5047619;28;20516;-87
2022/12/07 06:01:30;;;;;;;;;;;9.60;62.50;;;;;;5060321;28;19979;-87
2022/12/07 06:03:56;;;;;;;;;;;9.60;62.40;;;;;;5062376;28;19953;-90
2022/12/07 06:06:22;;;;;;;;;;;9.50;62.20;;;;;;5047366;28;19913;-88
2022/12/07 06:08:47;;;;;;;;;;;9.50;62.00;;;;;;5048053;28;20000;-89
2022/12/07 06:13:57;;;;;;;;;;;9.30;61.80;;;;;;5062132;28;19979;-88
2022/12/07 06:16:23;;;;;;;;;;;9.30;62.00;;;;;;5064098;28;20359;-90
2022/12/07 06:18:48;;;;;;;;;;;9.30;61.90;;;;;;5057557;28;19917;-90
2022/12/07 06:21:14;;;;;;;;;;;9.20;61.70;;;;;;5050075;28;19931;-90
2022/12/07 06:23:39;;;;;;;;;;;9.10;61.30;;;;;;5048690;28;19924;-90
2022/12/07 06:26:05;;;;;;;;;;;9.00;61.00;;;;;;5046869;28;19909;-87
2022/12/07 06:28:30;;;;;;;;;;;8.90;60.70;;;;;;5047100;28;19970;-89
2022/12/07 06:30:57;;;;;;;;;;;8.80;60.70;;;;;;5045728;28;19917;-90
2022/12/07 06:33:23;;;;;;;;;;;8.80;61.10;;;;;;5053934;28;19929;-89
2022/12/07 06:35:49;;;;;;;;;;;8.80;61.50;;;;;;5062006;28;19939;-90
2022/12/07 06:38:14;;;;;;;;;;;8.80;61.70;;;;;;5056693;28;19932;-88
2022/12/07 06:40:40;;;;;;;;;;;8.80;61.80;;;;;;5059534;28;20003;-87
2022/12/07 06:43:05;;;;;;;;;;;8.80;62.00;;;;;;5055464;28;21689;-89
2022/12/07 06:45:34;;;;;;;;;;;8.80;61.90;;;;;;5039362;28;19914;-87
2022/12/07 06:48:02;;;;;;;;;;;8.70;61.90;;;;;;5039816;28;20304;-89
2022/12/07 06:50:28;;;;;;;;;;;8.70;61.70;;;;;;5048559;28;19913;-87
2022/12/07 06:52:54;;;;;;;;;;;8.60;61.60;;;;;;5038464;28;20296;-87
2022/12/07 06:55:22;;;;;;;;;;;8.50;61.60;;;;;;5043555;28;19940;-87
2022/12/07 06:57:48;;;;;;;;;;;8.50;61.60;;;;;;5044164;28;19943;-87
2022/12/07 07:00:16;;;;;;;;;;;8.50;61.30;;;;;;5035995;28;19921;-86
2022/12/07 07:02:42;;;;;;;;;;;8.40;61.10;;;;;;5045582;28;19923;-89
2022/12/07 07:05:10;;;;;;;;;;;8.30;60.80;;;;;;5042741;28;19995;-87
2022/12/07 07:07:35;;;;;;;;;;;8.30;60.60;;;;;;5040668;28;20011;-87
2022/12/07 07:10:01;;;;;;;;;;;8.20;60.60;;;;;;5034663;28;20416;-88
2022/12/07 07:12:27;;;;;;;;;;;8.20;60.90;;;;;;5043320;28;19955;-87
2022/12/07 07:14:52;;;;;;;;;;;8.20;61.10;;;;;;5044569;28;19917;-87
2022/12/07 07:17:18;;;;;;;;;;;8.20;61.40;;;;;;5041594;28;19932;-87
2022/12/07 07:19:44;;;;;;;;;;;8.20;61.40;;;;;;5040351;28;20409;-89
2022/12/07 07:22:09;;;;;;;;;;;8.20;61.40;;;;;;5040422;28;20265;-88
2022/12/07 07:24:35;;;;;;;;;;;8.20;61.40;;;;;;5043004;28;19913;-87
2022/12/07 07:27:00;;;;;;;;;;;8.10;61.40;;;;;;5040648;28;19917;-89
2022/12/07 07:29:26;;;;;;;;;;;8.10;61.50;;;;;;5043967;28;19932;-88
2022/12/07 07:31:52;;;;;;;;;;;8.10;61.40;;;;;;5045734;28;19916;-89
2022/12/07 07:34:17;;;;;;;;;;;8.10;61.20;;;;;;5041568;28;19920;-89
2022/12/07 07:36:43;;;;;;;;;;;8.00;61.00;;;;;;5039115;28;19925;-87
2022/12/07 07:39:09;;;;;;;;;;;8.00;61.00;;;;;;5038665;28;19956;-89
2022/12/07 07:41:35;;;;;;;;;;;7.90;60.90;;;;;;5043536;28;19913;-87
2022/12/07 07:44:00;;;;;;;;;;;7.90;61.00;;;;;;5036710;28;19921;-89
2022/12/07 07:46:26;;;;;;;;;;;7.80;61.00;;;;;;5042000;28;19970;-87
2022/12/07 07:48:51;;;;;;;;;;;7.80;61.00;;;;;;5043450;28;19948;-88
2022/12/07 07:51:17;;;;;;;;;;;7.80;61.00;;;;;;5041331;28;19913;-88
2022/12/07 07:53:42;;;;;;;;;;;7.80;61.10;;;;;;5038699;28;20004;-88
2022/12/07 07:56:08;;;;;;;;;;;7.80;61.50;;;;;;5038318;28;20312;-89
2022/12/07 07:58:33;;;;;;;;;;;7.80;61.60;;;;;;5052129;28;20005;-89
2022/12/07 08:01:06;;;;;;;;;;;7.80;61.70;;;;;;5041885;28;20264;-88
2022/12/07 08:03:31;;;;;;;;;;;7.80;61.70;;;;;;5034754;28;19924;-87
2022/12/07 08:05:57;;;;;;;;;;;7.80;61.70;;;;;;5033483;28;19913;-87
2022/12/07 08:08:22;;;;;;;;;;;7.90;61.70;;;;;;5041262;28;19968;-88
2022/12/07 08:10:48;;;;;;;;;;;7.90;61.90;;;;;;5042666;28;20327;-88
2022/12/07 08:13:15;;;;;;;;;;;8.00;62.20;;;;;;5041013;28;19929;-89
2022/12/07 08:15:45;;;;;;;;;;;8.00;62.20;;;;;;5030983;28;19948;-90
2022/12/07 08:18:11;;;;;;;;;;;8.00;62.00;;;;;;5040641;28;20373;-87
2022/12/07 08:20:37;;;;;;;;;;;8.10;62.10;;;;;;5036631;28;20011;-88
2022/12/07 08:23:03;;;;;;;;;;;8.20;62.50;;;;;;5036395;28;19925;-88
2022/12/07 08:25:29;;;;;;;;;;;8.30;62.90;;;;;;5040156;28;20388;-89
2022/12/07 08:27:55;;;;;;;;;;;8.50;63.60;;;;;;5035797;28;20582;-90
2022/12/07 08:30:23;;;;;;;;;;;8.70;64.30;;;;;;5035059;28;20012;-89
2022/12/07 08:32:51;;;;;;;;;;;9.00;64.40;;;;;;5033594;28;20087;-89
2022/12/07 08:35:17;;;;;;;;;;;9.20;64.40;;;;;;5035159;28;19972;-87
2022/12/07 08:37:42;;;;;;;;;;;9.40;64.30;;;;;;5039758;28;19921;-90
2022/12/07 08:40:09;;;;;;;;;;;9.60;64.40;;;;;;5030692;28;20455;-87
2022/12/07 08:42:39;;;;;;;;;;;9.80;64.50;;;;;;5035321;28;19917;-89
2022/12/07 08:45:13;;;;;;;;;;;10.00;64.90;;;;;;5035430;28;19920;-88
2022/12/07 08:47:40;;;;;;;;;;;10.30;64.60;;;;;;5033873;28;20318;-90
2022/12/07 08:50:07;;;;;;;;;;;10.40;64.10;;;;;;5047666;28;19916;-87
2022/12/07 08:52:34;;;;;;;;;;;10.50;63.60;;;;;;5048460;28;19984;-90
2022/12/07 08:55:00;;;;;;;;;;;10.50;63.60;;;;;;5047426;28;20314;-89
2022/12/07 08:57:27;;;;;;;;;;;10.70;64.50;;;;;;5048078;28;19923;-90
2022/12/07 08:59:52;;;;;;;;;;;10.80;64.00;;;;;;5038338;28;20002;-88
2022/12/07 09:02:18;;;;;;;;;;;10.80;63.30;;;;;;5052097;28;19917;-91
2022/12/07 09:04:44;;;;;;;;;;;10.70;63.00;;;;;;5029642;28;19920;-88
2022/12/07 09:07:09;;;;;;;;;;;10.90;64.40;;;;;;5030231;28;19921;-89
2022/12/07 09:09:35;;;;;;;;;;;11.20;65.70;;;;;;5035638;28;20302;-88
2022/12/07 09:12:00;;;;;;;;;;;11.70;66.60;;;;;;5044616;28;19921;-90
2022/12/07 09:14:26;;;;;;;;;;;12.10;66.80;;;;;;5039508;28;19999;-89
2022/12/07 09:16:51;;;;;;;;;;;12.50;66.60;;;;;;5040305;28;19958;-90
2022/12/07 09:19:17;;;;;;;;;;;13.00;66.80;;;;;;5051928;28;19913;-91
2022/12/07 09:21:42;;;;;;;;;;;13.50;66.60;;;;;;5036867;28;20290;-87
2022/12/07 09:24:09;;;;;;;;;;;13.80;66.20;;;;;;5041690;28;20368;-90
2022/12/07 09:26:35;;;;;;;;;;;14.10;65.30;;;;;;5035902;28;19936;-88
2022/12/07 09:29:03;;;;;;;;;;;14.30;64.00;;;;;;5038751;28;19920;-90
2022/12/07 09:31:29;;;;;;;;;;;14.30;63.40;;;;;;5034371;28;19913;-87
2022/12/07 09:33:55;;;;;;;;;;;14.20;62.70;;;;;;5044549;28;20272;-90
2022/12/07 09:36:21;;;;;;;;;;;14.10;62.90;;;;;;5033590;28;19954;-88
2022/12/07 09:39:22;;;;;;;;;;;;;;;;;;;;;
2022/12/07 09:42:08;;;;;;;;;;;13.80;61.90;;;;;;5031318;28;19920;-88
2022/12/07 09:44:34;;;;;;;;;;;13.40;61.60;;;;;;5034505;28;19932;-90
2022/12/07 09:47:01;;;;;;;;;;;13.20;61.20;;;;;;5041199;28;19921;-88
2022/12/07 09:49:29;;;;;;;;;;;13.10;61.30;;;;;;5029539;28;20535;-87
2022/12/07 09:52:13;;;;;;;;;;;12.90;61.50;;;;;;5030028;28;20507;-91
2022/12/07 09:54:40;;;;;;;;;;;12.80;61.60;;;;;;5032421;28;19932;-89
2022/12/07 09:57:07;;;;;;;;;;;12.70;61.70;;;;;;5028376;28;19999;-87
2022/12/07 09:59:33;;;;;;;;;;;12.60;61.80;;;;;;5039496;28;19978;-87
2022/12/07 10:02:17;;;;;;;;;;;12.60;61.80;;;;;;5048429;28;19960;-88
2022/12/07 10:04:44;;;;;;;;;;;12.60;61.70;;;;;;5050416;28;19923;-88
2022/12/07 10:07:09;;;;;;;;;;;12.50;61.60;;;;;;5039946;28;19917;-87
2022/12/07 10:09:35;;;;;;;;;;;12.40;61.90;;;;;;5044816;28;19917;-86
2022/12/07 10:12:11;;;;;;;;;;;12.40;62.30;;;;;;5034654;28;19967;-87
2022/12/07 10:15:17;;;;;;;;;;;12.40;62.40;;;;;;5046356;28;19960;-88
2022/12/07 10:17:48;;;;;;;;;;;12.40;63.00;;;;;;5039763;28;19917;-88
2022/12/07 10:20:18;;;;;;;;;;;12.40;62.70;;;;;;5042577;28;20330;-89
2022/12/07 10:22:56;;;;;;;;;;;12.40;62.90;;;;;;5038929;28;19917;-89
2022/12/07 10:25:23;;;;;;;;;;;12.40;62.90;;;;;;5041949;28;20291;-89
2022/12/07 10:28:06;;;;;;;;;;;12.50;63.10;;;;;;5048848;28;19913;-87
2022/12/07 10:30:32;;;;;;;;;;;12.60;63.30;;;;;;5042747;28;19917;-90
2022/12/07 10:32:58;;;;;;;;;;;12.70;63.50;;;;;;5039123;28;19921;-88
2022/12/07 10:35:30;;;;;;;;;;;12.80;63.50;;;;;;5045304;28;19917;-90
2022/12/07 10:37:57;;;;;;;;;;;12.90;63.20;;;;;;5046695;28;19916;-87
2022/12/07 10:40:29;;;;;;;;;;;12.90;63.10;;;;;;5048549;28;19913;-88
2022/12/07 10:43:16;;;;;;;;;;;13.00;62.60;;;;;;5040757;28;19959;-91
2022/12/07 10:45:48;;;;;;;;;;;12.90;62.80;;;;;;5037222;28;19917;-90
2022/12/07 10:48:19;;;;;;;;;;;12.90;62.80;;;;;;5037668;28;20059;-90
2022/12/07 10:51:05;;;;;;;;;;;12.90;62.60;;;;;;5040518;28;19912;-87
2022/12/07 10:53:33;;;;;;;;;;;12.90;62.50;;;;;;5043893;28;19935;-88
2022/12/07 10:56:18;;;;;;;;;;;12.90;62.60;;;;;;5043434;28;19921;-88
2022/12/07 10:58:49;;;;;;;;;;;12.90;62.30;;;;;;5044997;28;19924;-87
2022/12/07 11:01:24;;;;;;;;;;;12.90;62.60;;;;;;5039902;28;19923;-87
2022/12/07 11:04:01;;;;;;;;;;;12.80;62.70;;;;;;5044616;28;19913;-89
2022/12/07 11:06:32;;;;;;;;;;;12.90;62.70;;;;;;5042309;28;19917;-88
2022/12/07 11:09:02;;;;;;;;;;;12.80;62.40;;;;;;5048944;28;20016;-89
2022/12/07 11:11:33;;;;;;;;;;;12.80;62.70;;;;;;5045896;28;19967;-90
2022/12/07 11:14:05;;;;;;;;;;;12.80;62.80;;;;;;5042637;28;19952;-91
2022/12/07 11:16:49;;;;;;;;;;;12.80;62.90;;;;;;5038595;28;19975;-90
2022/12/07 11:19:30;;;;;;;;;;;12.90;63.00;;;;;;5044752;28;19919;-90
2022/12/07 11:21:57;;;;;;;;;;;12.90;63.00;;;;;;5043759;28;20350;-89
2022/12/07 11:24:29;;;;;;;;;;;12.90;63.10;;;;;;5039852;28;19960;-91
2022/12/07 11:27:13;;;;;;;;;;;13.00;63.20;;;;;;5040034;28;19927;-90
2022/12/07 11:29:57;;;;;;;;;;;13.00;63.10;;;;;;5040736;28;19920;-87
2022/12/07 11:32:26;;;;;;;;;;;13.00;63.30;;;;;;5042695;28;19933;-90
2022/12/07 11:34:54;;;;;;;;;;;13.10;63.00;;;;;;5045814;28;20548;-88
2022/12/07 11:37:23;;;;;;;;;;;13.10;62.80;;;;;;5041491;28;19924;-88
2022/12/07 11:39:54;;;;;;;;;;;13.10;63.10;;;;;;5042689;28;19915;-87
2022/12/07 11:42:19;;;;;;;;;;;13.20;63.20;;;;;;5033737;28;19917;-91
2022/12/07 11:44:51;;;;;;;;;;;13.30;63.20;;;;;;5038099;28;20000;-90
2022/12/07 11:47:22;;;;;;;;;;;13.30;63.30;;;;;;5031015;28;19917;-90
2022/12/07 11:49:53;;;;;;;;;;;13.40;63.10;;;;;;5043007;28;20279;-89
2022/12/07 11:52:19;;;;;;;;;;;13.50;63.30;;;;;;5051258;28;19954;-89
2022/12/07 11:54:45;;;;;;;;;;;13.50;63.20;;;;;;5043207;28;20368;-90
2022/12/07 11:57:46;;;;;;;;;;;13.50;62.80;;;;;;5051991;28;19924;-87
2022/12/07 12:00:20;;;;;;;;;;;13.40;62.80;;;;;;5067737;28;19913;-90
2022/12/07 12:02:53;;;;;;;;;;;13.30;62.80;;;;;;5034361;28;19917;-87
2022/12/07 12:05:22;;;;;;;;;;;13.40;63.20;;;;;;5045864;28;19909;-90
2022/12/07 12:08:13;;;;;;;;;;;13.50;63.20;;;;;;5052055;28;20454;-89
2022/12/07 12:10:48;;;;;;;;;;;13.50;63.30;;;;;;5051603;28;19909;-91
2022/12/07 12:13:28;;;;;;;;;;;13.70;63.10;;;;;;5045776;28;19960;-90
2022/12/07 12:15:57;;;;;;;;;;;13.60;63.10;;;;;;5039562;28;19917;-89
2022/12/07 12:18:30;;;;;;;;;;;13.70;63.20;;;;;;5041005;28;20461;-88
2022/12/07 12:21:02;;;;;;;;;;;13.70;63.20;;;;;;5041230;28;19920;-90
2022/12/07 12:23:28;;;;;;;;;;;13.80;63.00;;;;;;5035494;28;19915;-88
2022/12/07 12:26:01;;;;;;;;;;;13.80;63.20;;;;;;5035904;28;19917;-90
2022/12/07 12:28:34;;;;;;;;;;;13.80;63.30;;;;;;5052261;28;20024;-90
2022/12/07 12:31:08;;;;;;;;;;;13.90;63.50;;;;;;5050054;28;20049;-90
2022/12/07 12:33:34;;;;;;;;;;;14.00;63.50;;;;;;5050845;28;19924;-89
2022/12/07 12:36:29;;;;;;;;;;;14.00;63.80;;;;;;5043515;28;20003;-89
2022/12/07 12:39:07;;;;;;;;;;;14.00;63.60;;;;;;5051013;28;19916;-88
2022/12/07 12:42:05;;;;;;;;;;;14.00;63.60;;;;;;5046166;28;19917;-87
2022/12/07 12:44:33;;;;;;;;;;;14.00;63.50;;;;;;5036601;28;20485;-89
2022/12/07 12:46:59;;;;;;;;;;;14.10;63.70;;;;;;5043430;28;19917;-90
2022/12/07 12:49:38;;;;;;;;;;;;;;;;;;;;;
2022/12/07 12:52:13;;;;;;;;;;;14.20;63.20;;;;;;5032276;28;20315;-89
2022/12/07 12:54:38;;;;;;;;;;;14.20;63.10;;;;;;5039721;28;19983;-88
2022/12/07 12:57:26;;;;;;;;;;;14.20;62.90;;;;;;5050939;28;19913;-90
2022/12/07 12:59:51;;;;;;;;;;;14.20;62.70;;;;;;5050567;28;19912;-88
2022/12/07 13:02:28;;;;;;;;;;;14.10;63.00;;;;;;5049126;28;19919;-90
2022/12/07 13:05:01;;;;;;;;;;;14.20;62.90;;;;;;5049786;28;19917;-88
2022/12/07 13:07:54;;;;;;;;;;;14.10;62.60;;;;;;5045331;28;19940;-90
2022/12/07 13:10:35;;;;;;;;;;;14.00;62.60;;;;;;5035683;28;19909;-90
2022/12/07 13:13:13;;;;;;;;;;;14.00;62.50;;;;;;5036947;28;19928;-90
2022/12/07 13:15:40;;;;;;;;;;;14.00;62.70;;;;;;5049627;28;19913;-87
2022/12/07 13:18:15;;;;;;;;;;;14.00;63.00;;;;;;5041245;28;19917;-87
2022/12/07 13:20:45;;;;;;;;;;;14.00;63.00;;;;;;5042859;28;19957;-87
2022/12/07 13:23:12;;;;;;;;;;;13.90;62.80;;;;;;5031579;28;19920;-86
2022/12/07 13:25:56;;;;;;;;;;;13.80;62.60;;;;;;5043205;28;20367;-87
2022/12/07 13:28:25;;;;;;;;;;;13.70;62.60;;;;;;5030333;28;20372;-87
2022/12/07 13:30:51;;;;;;;;;;;13.60;62.10;;;;;;5051830;28;19944;-87
2022/12/07 13:36:48;;;;;;;;;;;13.30;61.70;;;;;;5043694;28;20530;-90
2022/12/07 13:39:14;;;;;;;;;;;13.20;61.30;;;;;;5046079;28;20445;-88
2022/12/07 13:41:42;;;;;;;;;;;13.00;61.80;;;;;;5039339;28;19921;-90
2022/12/07 13:44:14;;;;;;;;;;;12.90;61.70;;;;;;5042149;28;20319;-87
2022/12/07 13:46:47;;;;;;;;;;;12.80;62.00;;;;;;5039508;28;20341;-88
2022/12/07 13:49:34;;;;;;;;;;;12.80;62.20;;;;;;5038285;28;19913;-90
2022/12/07 13:52:18;;;;;;;;;;;12.80;62.40;;;;;;5031583;28;19925;-90
2022/12/07 13:55:07;;;;;;;;;;;12.90;62.80;;;;;;5048382;28;19965;-87
2022/12/07 13:57:34;;;;;;;;;;;13.00;62.50;;;;;;5051698;28;20051;-90
2022/12/07 14:00:01;;;;;;;;;;;13.00;62.50;;;;;;5042697;28;19959;-90
2022/12/07 14:02:31;;;;;;;;;;;13.00;62.30;;;;;;5040141;28;19924;-89
2022/12/07 14:05:09;;;;;;;;;;;13.00;62.30;;;;;;5043591;28;19923;-88
2022/12/07 14:07:36;;;;;;;;;;;13.00;62.30;;;;;;5032678;28;19913;-88
2022/12/07 14:10:05;;;;;;;;;;;12.90;62.20;;;;;;5036491;28;19953;-87
2022/12/07 14:12:32;;;;;;;;;;;12.80;62.00;;;;;;5053327;28;20532;-89
2022/12/07 14:14:59;;;;;;;;;;;12.80;61.90;;;;;;5049627;28;19955;-87
2022/12/07 14:17:28;;;;;;;;;;;12.70;61.70;;;;;;5045494;28;20008;-89
2022/12/07 14:19:56;;;;;;;;;;;12.50;60.90;;;;;;5041702;28;19929;-91
2022/12/07 14:22:26;;;;;;;;;;;12.40;60.60;;;;;;5052456;28;19909;-92
2022/12/07 14:24:58;;;;;;;;;;;12.20;60.20;;;;;;5047546;28;20378;-89
2022/12/07 14:27:30;;;;;;;;;;;12.10;59.90;;;;;;5038007;28;19921;-89
2022/12/07 14:29:56;;;;;;;;;;;12.00;60.00;;;;;;5035043;28;19971;-90
2022/12/07 14:32:23;;;;;;;;;;;11.80;59.70;;;;;;5035611;28;20389;-91
2022/12/07 14:35:01;;;;;;;;;;;11.70;59.90;;;;;;5049236;28;19928;-90
2022/12/07 14:37:27;;;;;;;;;;;11.50;59.60;;;;;;5051418;28;20036;-90
2022/12/07 14:39:54;;;;;;;;;;;11.50;59.80;;;;;;5043396;28;20268;-89
2022/12/07 14:42:20;;;;;;;;;;;11.30;59.90;;;;;;5041954;28;20381;-89
2022/12/07 14:44:45;;;;;;;;;;;11.30;60.10;;;;;;5048832;28;19921;-87
2022/12/07 14:47:11;;;;;;;;;;;11.20;60.10;;;;;;5031959;28;19949;-88